Time;durP1;ratioP1;P1;durP2;ratioP2;P2;SDS_P1;SDS_P2;PMS_P1;PMS_P2;Temp;Humidity;BMP_temperature;BMP_pressure;BME280_temperature;BME280_humidity;BME280_pressure;Samples;Min_cycle;Max_cycle;Signal;HPM_P1;HPM_P2
2022/02/07 00:01:42;;;;;;;;;;;6.10;99.90;;;;;;5067399;28;19929;-52
2022/02/07 00:04:10;;;;;;;;;;;6.10;99.90;;;;;;5071889;28;20358;-52
2022/02/07 00:06:37;;;;;;;;;;;6.10;99.90;;;;;;5070583;28;19931;-52
2022/02/07 00:09:04;;;;;;;;;;;6.30;99.90;;;;;;5059332;28;19925;-52
2022/02/07 00:11:31;;;;;;;;;;;6.50;99.90;;;;;;5062699;28;20000;-52
2022/02/07 00:13:57;;;;;;;;;;;6.40;99.90;;;;;;5067510;28;19940;-52
2022/02/07 00:16:25;;;;;;;;;;;6.50;99.90;;;;;;5073017;28;19925;-52
2022/02/07 00:18:52;;;;;;;;;;;6.60;99.90;;;;;;5062565;28;19934;-53
2022/02/07 00:21:19;;;;;;;;;;;6.60;99.90;;;;;;5061977;28;19933;-52
2022/02/07 00:23:46;;;;;;;;;;;6.60;99.90;;;;;;5065850;28;21172;-53
2022/02/07 00:26:12;;;;;;;;;;;6.60;99.90;;;;;;5067013;28;19983;-52
2022/02/07 00:28:39;;;;;;;;;;;6.70;99.90;;;;;;5065157;28;19974;-52
2022/02/07 00:31:06;;;;;;;;;;;6.80;99.90;;;;;;5068975;28;19977;-53
2022/02/07 00:33:34;;;;;;;;;;;6.90;99.90;;;;;;5060235;28;19974;-52
2022/02/07 00:36:01;;;;;;;;;;;6.90;99.90;;;;;;5057173;28;19924;-53
2022/02/07 00:38:28;;;;;;;;;;;7.00;99.90;;;;;;5066525;28;19924;-52
2022/02/07 00:41:14;;;;;;;;;;;7.10;99.90;;;;;;5076996;28;19924;-53
2022/02/07 00:43:43;;;;;;;;;;;7.20;99.90;;;;;;5077867;28;19930;-52
2022/02/07 00:46:12;;;;;;;;;;;7.10;99.90;;;;;;5077414;28;19931;-52
2022/02/07 00:48:41;;;;;;;;;;;7.20;99.90;;;;;;5076893;28;19924;-52
2022/02/07 00:51:10;;;;;;;;;;;7.20;99.90;;;;;;5076014;28;19977;-52
2022/02/07 00:53:36;;;;;;;;;;;7.30;99.90;;;;;;5093023;28;20320;-53
2022/02/07 00:56:04;;;;;;;;;;;7.40;99.90;;;;;;5096700;28;20386;-53
2022/02/07 00:58:30;;;;;;;;;;;7.50;99.90;;;;;;5097087;28;19931;-54
2022/02/07 01:00:57;;;;;;;;;;;7.60;99.90;;;;;;5106751;22;19931;-50
2022/02/07 01:03:24;;;;;;;;;;;7.70;99.90;;;;;;5088522;28;19928;-51
2022/02/07 01:05:53;;;;;;;;;;;7.80;99.90;;;;;;5085530;28;20010;-49
2022/02/07 01:08:23;;;;;;;;;;;7.80;99.90;;;;;;5075218;28;19928;-49
2022/02/07 01:10:57;;;;;;;;;;;7.80;99.90;;;;;;5074973;28;19947;-50
2022/02/07 01:13:37;;;;;;;;;;;7.90;99.90;;;;;;5074761;28;20340;-49
2022/02/07 01:16:12;;;;;;;;;;;8.00;99.90;;;;;;5074515;28;19924;-50
2022/02/07 01:19:19;;;;;;;;;;;8.10;99.90;;;;;;5074527;28;19924;-50
2022/02/07 01:22:12;;;;;;;;;;;8.10;99.90;;;;;;5073999;28;20400;-50
2022/02/07 01:47:32;;;;;;;;;;;7.30;99.90;;;;;;5074360;28;20302;-50
2022/02/07 01:52:56;;;;;;;;;;;7.10;99.90;;;;;;5060167;28;19921;-51
2022/02/07 01:55:34;;;;;;;;;;;7.10;99.90;;;;;;5074070;28;19928;-51
2022/02/07 01:58:01;;;;;;;;;;;7.00;99.90;;;;;;5074151;28;20012;-51
2022/02/07 02:00:28;;;;;;;;;;;7.00;99.90;;;;;;5073844;28;19985;-52
2022/02/07 02:02:55;;;;;;;;;;;6.90;99.90;;;;;;5073713;28;19978;-51
2022/02/07 02:05:22;;;;;;;;;;;6.90;99.90;;;;;;5074267;28;19983;-51
2022/02/07 02:07:49;;;;;;;;;;;6.90;99.90;;;;;;5073866;28;19929;-51
2022/02/07 02:10:17;;;;;;;;;;;6.90;99.90;;;;;;5073584;28;20420;-51
2022/02/07 02:12:54;;;;;;;;;;;6.90;99.90;;;;;;5073248;28;19924;-51
2022/02/07 02:15:31;;;;;;;;;;;7.00;99.90;;;;;;5074186;28;20148;-51
2022/02/07 02:37:22;;;;;;;;;;;3.10;99.90;;;;;;5065332;28;19978;-51
2022/02/07 02:45:32;;;;;;;;;;;3.20;99.90;;;;;;5073496;28;19932;-50
2022/02/07 02:48:03;;;;;;;;;;;3.20;99.90;;;;;;5073252;28;20382;-50
2022/02/07 02:50:32;;;;;;;;;;;3.30;99.90;;;;;;5073352;28;20450;-50
2022/02/07 02:53:00;;;;;;;;;;;3.40;99.90;;;;;;5072697;28;19978;-51
2022/02/07 02:55:28;;;;;;;;;;;3.50;99.90;;;;;;5072549;28;19970;-51
2022/02/07 02:57:55;;;;;;;;;;;3.50;99.90;;;;;;5072709;28;19925;-49
2022/02/07 03:00:22;;;;;;;;;;;3.60;99.90;;;;;;5072796;28;19958;-48
2022/02/07 03:02:48;;;;;;;;;;;3.60;99.90;;;;;;5072979;28;19933;-49
2022/02/07 03:05:16;;;;;;;;;;;3.60;99.90;;;;;;5073131;28;19928;-50
2022/02/07 03:07:43;;;;;;;;;;;3.60;99.90;;;;;;5072609;28;19925;-51
2022/02/07 03:10:10;;;;;;;;;;;3.50;99.90;;;;;;5072646;28;19977;-50
2022/02/07 03:12:45;;;;;;;;;;;3.60;99.90;;;;;;5072569;28;20306;-50
2022/02/07 03:17:57;;;;;;;;;;;3.40;99.90;;;;;;5072988;28;19929;-51
2022/02/07 03:20:23;;;;;;;;;;;3.30;99.90;;;;;;5072117;28;19924;-50
2022/02/07 03:22:50;;;;;;;;;;;3.30;99.90;;;;;;5072178;28;19930;-49
2022/02/07 03:25:17;;;;;;;;;;;3.30;99.90;;;;;;5072532;28;20011;-50
2022/02/07 03:27:45;;;;;;;;;;;3.40;99.90;;;;;;5072633;28;19986;-51
2022/02/07 03:30:12;;;;;;;;;;;3.40;99.90;;;;;;5072363;28;19974;-50
2022/02/07 03:32:39;;;;;;;;;;;3.50;99.90;;;;;;5072135;28;19928;-50
2022/02/07 03:35:06;;;;;;;;;;;3.50;99.90;;;;;;5072485;28;19924;-51
2022/02/07 03:37:33;;;;;;;;;;;3.40;99.90;;;;;;5072506;28;19929;-50
2022/02/07 03:39:59;;;;;;;;;;;3.50;99.90;;;;;;5072087;28;19931;-50
2022/02/07 03:42:26;;;;;;;;;;;3.60;99.90;;;;;;5072169;28;19944;-49
2022/02/07 03:44:54;;;;;;;;;;;3.70;99.90;;;;;;5072141;28;20431;-51
2022/02/07 03:47:21;;;;;;;;;;;3.80;99.90;;;;;;5071940;28;19994;-50
2022/02/07 03:49:48;;;;;;;;;;;3.90;99.90;;;;;;5072004;28;19982;-51
2022/02/07 03:52:14;;;;;;;;;;;3.80;99.90;;;;;;5072186;28;19924;-50
2022/02/07 03:54:41;;;;;;;;;;;3.90;99.90;;;;;;5072002;28;19954;-50
2022/02/07 03:57:08;;;;;;;;;;;3.90;99.90;;;;;;5072362;28;19990;-51
2022/02/07 03:59:35;;;;;;;;;;;3.90;99.90;;;;;;5071621;28;19924;-50
2022/02/07 04:02:03;;;;;;;;;;;3.90;99.90;;;;;;5071909;28;19974;-50
2022/02/07 04:04:30;;;;;;;;;;;4.00;99.90;;;;;;5071505;28;19925;-49
2022/02/07 04:06:56;;;;;;;;;;;3.90;99.90;;;;;;5071096;28;19924;-51
2022/02/07 04:09:29;;;;;;;;;;;3.80;99.90;;;;;;5071870;28;19928;-50
2022/02/07 04:12:01;;;;;;;;;;;3.90;99.90;;;;;;5072115;28;20007;-50
2022/02/07 04:14:28;;;;;;;;;;;3.80;99.90;;;;;;5071593;28;19928;-51
2022/02/07 04:16:54;;;;;;;;;;;3.80;99.90;;;;;;5071824;28;19925;-51
2022/02/07 04:19:30;;;;;;;;;;;3.80;99.90;;;;;;5071382;28;20279;-51
2022/02/07 04:21:57;;;;;;;;;;;3.80;99.90;;;;;;5071938;28;19967;-50
2022/02/07 04:24:23;;;;;;;;;;;3.80;99.90;;;;;;5071599;28;20370;-49
2022/02/07 04:26:50;;;;;;;;;;;3.80;99.90;;;;;;5071543;28;20000;-51
2022/02/07 04:29:17;;;;;;;;;;;3.90;99.90;;;;;;5071102;28;19924;-51
2022/02/07 04:31:44;;;;;;;;;;;3.90;99.90;;;;;;5071547;28;19929;-51
2022/02/07 04:34:11;;;;;;;;;;;3.80;99.90;;;;;;5071558;28;20014;-51
2022/02/07 04:36:40;;;;;;;;;;;3.70;99.90;;;;;;5071649;28;19924;-50
2022/02/07 04:39:07;;;;;;;;;;;3.80;99.90;;;;;;5058078;28;19925;-51
2022/02/07 04:41:34;;;;;;;;;;;3.80;99.90;;;;;;5051619;28;20349;-50
2022/02/07 04:44:05;;;;;;;;;;;3.80;99.90;;;;;;5066271;28;19928;-51
2022/02/07 04:46:45;;;;;;;;;;;3.80;99.90;;;;;;5071640;28;20309;-49
2022/02/07 04:49:26;;;;;;;;;;;3.90;99.90;;;;;;5070952;28;20015;-51
2022/02/07 04:52:04;;;;;;;;;;;3.90;99.90;;;;;;5063329;28;20315;-52
2022/02/07 05:00:09;;;;;;;;;;;3.80;99.90;;;;;;5069631;28;20016;-49
2022/02/07 05:02:47;;;;;;;;;;;3.80;99.90;;;;;;5069893;28;19931;-50
2022/02/07 05:05:25;;;;;;;;;;;3.80;99.90;;;;;;5070090;28;19939;-51
2022/02/07 05:13:46;;;;;;;;;;;3.70;99.90;;;;;;5069813;28;19943;-51
2022/02/07 05:16:19;;;;;;;;;;;3.70;99.90;;;;;;5066595;28;19935;-52
2022/02/07 05:18:49;;;;;;;;;;;3.70;99.90;;;;;;5071797;28;19932;-52
2022/02/07 05:21:16;;;;;;;;;;;3.70;99.90;;;;;;5073262;28;19937;-51
2022/02/07 05:23:44;;;;;;;;;;;3.60;99.90;;;;;;5073426;28;19973;-54
2022/02/07 05:26:11;;;;;;;;;;;3.70;99.90;;;;;;5072895;28;19924;-51
2022/02/07 05:28:37;;;;;;;;;;;3.60;99.90;;;;;;5072913;28;19981;-51
2022/02/07 05:31:04;;;;;;;;;;;3.70;99.90;;;;;;5072943;28;19978;-51
2022/02/07 05:33:31;;;;;;;;;;;3.60;99.90;;;;;;5072948;28;20381;-53
2022/02/07 05:35:58;;;;;;;;;;;3.60;99.90;;;;;;5073086;28;20321;-52
2022/02/07 05:38:25;;;;;;;;;;;3.60;99.90;;;;;;5072863;28;20347;-51
2022/02/07 05:40:56;;;;;;;;;;;3.60;99.90;;;;;;5072759;28;19925;-51
2022/02/07 05:43:23;;;;;;;;;;;3.50;99.90;;;;;;5072454;28;20597;-50
2022/02/07 05:45:50;;;;;;;;;;;3.60;99.90;;;;;;5072696;28;20461;-51
2022/02/07 05:48:16;;;;;;;;;;;3.60;99.90;;;;;;5072948;28;19925;-51
2022/02/07 05:50:43;;;;;;;;;;;3.70;99.90;;;;;;5072813;28;19936;-50
2022/02/07 05:53:10;;;;;;;;;;;3.80;99.90;;;;;;5072866;28;19978;-51
2022/02/07 05:55:37;;;;;;;;;;;3.70;99.90;;;;;;5072910;28;20310;-51
2022/02/07 05:58:05;;;;;;;;;;;3.70;99.90;;;;;;5072227;28;19932;-55
2022/02/07 06:00:33;;;;;;;;;;;3.80;99.90;;;;;;5072389;28;19978;-53
2022/02/07 06:02:59;;;;;;;;;;;3.70;99.90;;;;;;5070834;28;19935;-50
2022/02/07 06:05:26;;;;;;;;;;;3.80;99.90;;;;;;5071482;28;20286;-48
2022/02/07 06:07:53;;;;;;;;;;;3.80;99.90;;;;;;5072518;28;21313;-51
2022/02/07 06:10:20;;;;;;;;;;;3.80;99.90;;;;;;5072445;28;19982;-51
2022/02/07 06:12:47;;;;;;;;;;;3.80;99.90;;;;;;5072530;28;19974;-51
2022/02/07 06:15:16;;;;;;;;;;;3.90;99.90;;;;;;5072366;28;19924;-52
2022/02/07 06:17:46;;;;;;;;;;;3.90;99.90;;;;;;5072400;28;19939;-50
2022/02/07 06:20:13;;;;;;;;;;;3.80;99.90;;;;;;5072096;28;20011;-50
2022/02/07 06:22:40;;;;;;;;;;;3.70;99.90;;;;;;5070955;28;19924;-49
2022/02/07 06:25:07;;;;;;;;;;;3.80;99.90;;;;;;5072107;28;20275;-49
2022/02/07 06:27:34;;;;;;;;;;;3.80;99.90;;;;;;5067746;28;19924;-49
2022/02/07 06:30:00;;;;;;;;;;;3.80;99.90;;;;;;5071466;28;19978;-49
2022/02/07 06:32:29;;;;;;;;;;;3.80;99.90;;;;;;5072204;28;20356;-49
2022/02/07 06:34:55;;;;;;;;;;;3.80;99.90;;;;;;5067865;28;19925;-50
2022/02/07 06:37:22;;;;;;;;;;;3.60;99.90;;;;;;5071937;28;19985;-48
2022/02/07 06:39:49;;;;;;;;;;;3.40;99.90;;;;;;5071921;28;19932;-50
2022/02/07 06:42:17;;;;;;;;;;;3.00;99.90;;;;;;5072036;28;19932;-50
2022/02/07 06:44:44;;;;;;;;;;;2.80;99.90;;;;;;5071975;28;19968;-53
2022/02/07 06:47:11;;;;;;;;;;;2.80;99.90;;;;;;5071632;28;20349;-50
2022/02/07 06:49:39;;;;;;;;;;;2.80;99.90;;;;;;5071275;28;19928;-50
2022/02/07 06:52:06;;;;;;;;;;;2.70;99.90;;;;;;5071763;28;20060;-50
2022/02/07 06:54:33;;;;;;;;;;;2.70;99.90;;;;;;5071402;28;20451;-50
2022/02/07 06:57:00;;;;;;;;;;;2.70;99.90;;;;;;5071455;28;19970;-50
2022/02/07 06:59:30;;;;;;;;;;;2.90;99.90;;;;;;5072184;28;19924;-49
2022/02/07 07:01:57;;;;;;;;;;;2.90;99.90;;;;;;5071223;28;19928;-48
2022/02/07 07:04:27;;;;;;;;;;;2.90;99.90;;;;;;5071456;28;19993;-49
2022/02/07 07:06:56;;;;;;;;;;;2.90;99.90;;;;;;5065275;28;20398;-50
2022/02/07 07:09:23;;;;;;;;;;;2.90;99.90;;;;;;5067019;28;19928;-51
2022/02/07 07:11:50;;;;;;;;;;;3.00;99.90;;;;;;5067144;28;19929;-50
2022/02/07 07:14:28;;;;;;;;;;;3.00;99.90;;;;;;5071660;28;20007;-52
2022/02/07 07:16:55;;;;;;;;;;;3.00;99.90;;;;;;5070824;28;19924;-50
2022/02/07 07:19:23;;;;;;;;;;;3.00;99.90;;;;;;5067411;28;19947;-50
2022/02/07 07:21:50;;;;;;;;;;;3.10;99.90;;;;;;5071058;28;19931;-51
2022/02/07 07:24:18;;;;;;;;;;;3.00;99.90;;;;;;5071124;28;20763;-53
2022/02/07 07:26:45;;;;;;;;;;;3.00;99.90;;;;;;5071118;28;20003;-52
2022/02/07 07:29:16;;;;;;;;;;;3.00;99.90;;;;;;5070843;28;19928;-50
2022/02/07 07:31:48;;;;;;;;;;;3.00;99.90;;;;;;5069620;28;20481;-50
2022/02/07 07:34:16;;;;;;;;;;;3.00;99.90;;;;;;5071444;28;19932;-51
2022/02/07 07:36:43;;;;;;;;;;;2.90;99.90;;;;;;5065921;28;20023;-51
2022/02/07 07:39:10;;;;;;;;;;;3.10;99.90;;;;;;5067471;28;19970;-51
2022/02/07 07:41:38;;;;;;;;;;;3.20;99.90;;;;;;5070485;28;19924;-49
2022/02/07 07:44:05;;;;;;;;;;;3.20;99.90;;;;;;5070504;28;19925;-50
2022/02/07 07:46:33;;;;;;;;;;;3.30;99.90;;;;;;5098073;22;19924;-50
2022/02/07 07:49:03;;;;;;;;;;;3.30;99.90;;;;;;5127751;27;19932;-50
2022/02/07 07:51:40;;;;;;;;;;;3.40;99.90;;;;;;5118227;27;19935;-49
2022/02/07 07:54:19;;;;;;;;;;;3.40;99.90;;;;;;5130077;27;19930;-49
2022/02/07 08:02:18;;;;;;;;;;;3.50;99.90;;;;;;5110841;28;20069;-51
2022/02/07 08:04:47;;;;;;;;;;;3.60;99.90;;;;;;5110290;28;20392;-49
2022/02/07 08:07:18;;;;;;;;;;;3.60;99.90;;;;;;5111206;27;20265;-49
2022/02/07 08:12:28;;;;;;;;;;;3.90;99.90;;;;;;5113038;27;20389;-49
2022/02/07 08:14:55;;;;;;;;;;;4.00;99.90;;;;;;5101755;27;19976;-49
2022/02/07 08:17:23;;;;;;;;;;;4.10;99.90;;;;;;5114097;27;20018;-49
2022/02/07 08:19:51;;;;;;;;;;;4.10;99.90;;;;;;5120985;27;19937;-50
2022/02/07 08:22:19;;;;;;;;;;;4.00;99.90;;;;;;5109569;27;20377;-50
2022/02/07 08:24:46;;;;;;;;;;;4.00;99.90;;;;;;5114267;28;20347;-49
2022/02/07 08:27:12;;;;;;;;;;;3.90;99.90;;;;;;5110130;28;19928;-49
2022/02/07 08:29:41;;;;;;;;;;;3.90;99.90;;;;;;5109112;28;19928;-49
2022/02/07 08:32:08;;;;;;;;;;;3.90;99.90;;;;;;5109954;28;20300;-49
2022/02/07 08:34:35;;;;;;;;;;;4.00;99.90;;;;;;5109885;28;19985;-48
2022/02/07 08:37:02;;;;;;;;;;;4.10;99.90;;;;;;5110079;28;19924;-48
2022/02/07 08:39:29;;;;;;;;;;;4.20;99.90;;;;;;5109594;28;20403;-49
2022/02/07 08:41:56;;;;;;;;;;;4.20;99.90;;;;;;5110191;28;20031;-50
2022/02/07 08:44:23;;;;;;;;;;;4.30;99.90;;;;;;5109928;28;19985;-52
2022/02/07 08:46:51;;;;;;;;;;;4.40;99.90;;;;;;5094392;28;19932;-51
2022/02/07 08:49:18;;;;;;;;;;;4.50;99.90;;;;;;5109612;28;19924;-52
2022/02/07 08:51:45;;;;;;;;;;;4.40;99.90;;;;;;5109763;28;20023;-49
2022/02/07 08:54:18;;;;;;;;;;;4.40;99.90;;;;;;5113102;28;20300;-49
2022/02/07 08:56:50;;;;;;;;;;;4.40;99.90;;;;;;5113614;28;19966;-51
2022/02/07 08:59:18;;;;;;;;;;;4.40;99.90;;;;;;5113804;28;20262;-49
2022/02/07 09:01:52;;;;;;;;;;;4.60;99.90;;;;;;5106683;28;20015;-52
2022/02/07 09:04:43;;;;;;;;;;;4.50;99.90;;;;;;5093432;28;19931;-49
2022/02/07 09:07:14;;;;;;;;;;;4.40;99.90;;;;;;5092963;28;20411;-49
2022/02/07 09:09:43;;;;;;;;;;;4.40;99.90;;;;;;5100176;28;19923;-52
2022/02/07 09:12:10;;;;;;;;;;;4.40;99.90;;;;;;5113439;28;19934;-52
2022/02/07 09:14:43;;;;;;;;;;;4.40;99.90;;;;;;5113360;28;19924;-52
2022/02/07 09:17:10;;;;;;;;;;;4.30;99.90;;;;;;5112487;27;19927;-52
2022/02/07 09:19:38;;;;;;;;;;;4.30;99.90;;;;;;5111756;28;19924;-52
2022/02/07 09:22:05;;;;;;;;;;;4.30;99.90;;;;;;5111145;28;20258;-49
2022/02/07 09:24:32;;;;;;;;;;;4.40;99.90;;;;;;5110637;28;20389;-49
2022/02/07 09:26:59;;;;;;;;;;;4.40;99.90;;;;;;5111611;28;19973;-49
2022/02/07 09:29:26;;;;;;;;;;;4.40;99.90;;;;;;5111558;28;19928;-49
2022/02/07 09:31:52;;;;;;;;;;;4.50;99.90;;;;;;5110513;28;19924;-49
2022/02/07 09:34:19;;;;;;;;;;;4.60;99.90;;;;;;5111864;28;19976;-50
2022/02/07 09:36:52;;;;;;;;;;;4.70;99.90;;;;;;5111895;28;19924;-51
2022/02/07 09:39:19;;;;;;;;;;;4.90;99.90;;;;;;5108099;28;19935;-53
2022/02/07 09:41:48;;;;;;;;;;;4.80;99.90;;;;;;5111343;28;19931;-51
2022/02/07 09:44:16;;;;;;;;;;;5.10;99.90;;;;;;5111743;28;19924;-53
2022/02/07 09:46:46;;;;;;;;;;;5.30;99.90;;;;;;5111015;28;19976;-52
2022/02/07 09:49:14;;;;;;;;;;;5.50;99.90;;;;;;5108244;28;19943;-54
2022/02/07 09:51:43;;;;;;;;;;;5.50;99.90;;;;;;5112069;28;19928;-51
2022/02/07 09:54:15;;;;;;;;;;;5.30;99.90;;;;;;5112211;28;20411;-52
2022/02/07 09:56:41;;;;;;;;;;;5.40;99.90;;;;;;5112047;28;20692;-52
2022/02/07 09:59:09;;;;;;;;;;;5.40;99.90;;;;;;5111835;28;20409;-53
2022/02/07 10:01:38;;;;;;;;;;;5.30;99.90;;;;;;5111665;28;20023;-52
2022/02/07 10:04:08;;;;;;;;;;;5.30;99.90;;;;;;5110344;28;20427;-51
2022/02/07 10:06:48;;;;;;;;;;;5.30;99.90;;;;;;5111479;28;20397;-50
2022/02/07 10:12:07;;;;;;;;;;;5.00;99.90;;;;;;5098791;28;19931;-50
2022/02/07 10:14:42;;;;;;;;;;;4.90;99.90;;;;;;5111976;28;20026;-50
2022/02/07 10:17:26;;;;;;;;;;;4.90;99.90;;;;;;5111847;28;19924;-49
2022/02/07 10:20:13;;;;;;;;;;;4.90;99.90;;;;;;5109761;28;20415;-48
2022/02/07 10:34:30;;;;;;;;;;;4.80;99.90;;;;;;5111948;28;19928;-50
2022/02/07 10:34:44;;;;;;;;;;;4.90;99.90;;;;;;5110168;28;19942;-51
2022/02/07 10:40:12;;;;;;;;;;;5.00;99.90;;;;;;5111080;28;20076;-53
2022/02/07 10:43:07;;;;;;;;;;;5.00;99.90;;;;;;5111172;28;19945;-53
2022/02/07 10:45:34;;;;;;;;;;;5.10;99.90;;;;;;5111073;28;19931;-49
2022/02/07 10:48:05;;;;;;;;;;;5.30;99.90;;;;;;5110826;28;20366;-51
2022/02/07 10:50:32;;;;;;;;;;;5.40;99.90;;;;;;5110220;28;19924;-50
2022/02/07 10:53:00;;;;;;;;;;;5.30;99.90;;;;;;5110749;28;19931;-51
2022/02/07 10:55:27;;;;;;;;;;;5.30;99.90;;;;;;5110856;28;20454;-50
2022/02/07 10:57:58;;;;;;;;;;;5.40;99.90;;;;;;5110542;28;19973;-49
2022/02/07 11:00:29;;;;;;;;;;;5.40;99.90;;;;;;5110736;28;20425;-49
2022/02/07 11:03:10;;;;;;;;;;;5.40;99.90;;;;;;5110672;28;20397;-50
2022/02/07 11:05:41;;;;;;;;;;;5.20;99.90;;;;;;5109815;28;19953;-49
2022/02/07 11:08:22;;;;;;;;;;;5.10;99.90;;;;;;5103072;28;19941;-51
2022/02/07 11:11:17;;;;;;;;;;;5.00;99.90;;;;;;5109097;28;19968;-50
2022/02/07 11:14:06;;;;;;;;;;;4.90;99.90;;;;;;5110382;28;20015;-50
2022/02/07 11:16:43;;;;;;;;;;;4.80;99.90;;;;;;5109879;28;19963;-49
2022/02/07 11:19:35;;;;;;;;;;;4.90;99.90;;;;;;5110089;28;20424;-51
2022/02/07 11:22:11;;;;;;;;;;;4.90;99.90;;;;;;5110145;28;19955;-50
2022/02/07 11:24:57;;;;;;;;;;;5.00;99.90;;;;;;5110706;28;20031;-51
2022/02/07 11:27:36;;;;;;;;;;;4.90;99.90;;;;;;5111932;28;20046;-50
2022/02/07 11:30:07;;;;;;;;;;;4.60;99.90;;;;;;5111824;28;19924;-51
2022/02/07 11:32:54;;;;;;;;;;;4.30;99.90;;;;;;5112419;28;20065;-49
2022/02/07 11:35:22;;;;;;;;;;;4.40;99.90;;;;;;5128478;27;19928;-50
2022/02/07 11:37:53;;;;;;;;;;;4.50;99.90;;;;;;5110210;28;20405;-49
2022/02/07 11:40:25;;;;;;;;;;;4.80;99.90;;;;;;5106579;28;20331;-49
2022/02/07 11:43:06;;;;;;;;;;;5.20;99.90;;;;;;5110112;28;19954;-50
2022/02/07 11:45:47;;;;;;;;;;;5.60;99.90;;;;;;5107007;28;19969;-49
2022/02/07 11:48:14;;;;;;;;;;;5.70;99.90;;;;;;5109740;28;20377;-49
2022/02/07 11:50:46;;;;;;;;;;;5.90;99.90;;;;;;5110155;28;20000;-50
2022/02/07 11:53:15;;;;;;;;;;;6.10;99.90;;;;;;5109866;28;19955;-49
2022/02/07 11:55:42;;;;;;;;;;;6.10;99.90;;;;;;5109931;28;19935;-50
2022/02/07 11:58:18;;;;;;;;;;;6.30;99.90;;;;;;5105278;28;20313;-49
2022/02/07 12:00:49;;;;;;;;;;;6.30;99.90;;;;;;5109830;28;19991;-50
2022/02/07 12:03:17;;;;;;;;;;;6.40;99.90;;;;;;5110023;28;19930;-50
2022/02/07 12:05:45;;;;;;;;;;;6.50;99.90;;;;;;5109640;28;19967;-50
2022/02/07 12:08:15;;;;;;;;;;;6.50;99.90;;;;;;5109390;28;19973;-51
2022/02/07 12:10:47;;;;;;;;;;;6.60;99.90;;;;;;5109696;28;19994;-49
2022/02/07 12:13:28;;;;;;;;;;;6.70;99.90;;;;;;5106317;28;19924;-50
2022/02/07 12:15:58;;;;;;;;;;;6.70;99.90;;;;;;5109650;28;19927;-50
2022/02/07 12:18:25;;;;;;;;;;;6.50;99.90;;;;;;5109523;28;19932;-50
2022/02/07 12:20:54;;;;;;;;;;;6.30;99.90;;;;;;5109457;28;19932;-50
2022/02/07 12:23:21;;;;;;;;;;;6.30;99.90;;;;;;5111153;28;20027;-50
2022/02/07 12:25:51;;;;;;;;;;;6.50;99.90;;;;;;5110594;27;19927;-51
2022/02/07 12:28:26;;;;;;;;;;;6.60;99.90;;;;;;5124801;27;20014;-50
2022/02/07 12:31:02;;;;;;;;;;;6.50;99.90;;;;;;5116779;28;20006;-51
2022/02/07 12:33:31;;;;;;;;;;;6.40;99.90;;;;;;5126838;28;19923;-50
2022/02/07 12:35:58;;;;;;;;;;;6.60;99.90;;;;;;5111908;28;19927;-51
2022/02/07 12:38:26;;;;;;;;;;;6.70;99.90;;;;;;5119795;28;19952;-53
2022/02/07 12:40:53;;;;;;;;;;;6.70;99.90;;;;;;5124252;28;20087;-53
2022/02/07 12:43:21;;;;;;;;;;;7.00;99.90;;;;;;5125236;28;19996;-52
2022/02/07 12:45:48;;;;;;;;;;;7.00;99.90;;;;;;5129100;28;19923;-53
2022/02/07 12:48:19;;;;;;;;;;;7.20;99.90;;;;;;5123599;28;19924;-53
2022/02/07 12:50:50;;;;;;;;;;;7.20;99.90;;;;;;5115150;28;19972;-52
2022/02/07 12:53:17;;;;;;;;;;;7.40;99.90;;;;;;5119653;28;20292;-53
2022/02/07 12:55:45;;;;;;;;;;;7.40;99.90;;;;;;5110047;28;19934;-53
2022/02/07 12:58:12;;;;;;;;;;;7.20;99.90;;;;;;5109202;28;19928;-53
2022/02/07 13:00:39;;;;;;;;;;;7.30;99.90;;;;;;5110189;28;19928;-53
2022/02/07 13:03:06;;;;;;;;;;;7.20;99.90;;;;;;5111356;28;19931;-53
2022/02/07 13:05:34;;;;;;;;;;;6.80;99.90;;;;;;5110316;28;19924;-53
2022/02/07 13:08:03;;;;;;;;;;;6.60;99.90;;;;;;5113457;28;19934;-52
2022/02/07 13:10:35;;;;;;;;;;;6.40;99.90;;;;;;5128881;28;19927;-52
2022/02/07 13:13:20;;;;;;;;;;;6.30;99.90;;;;;;5128844;28;19927;-53
2022/02/07 13:15:47;;;;;;;;;;;6.00;99.90;;;;;;5129991;28;20011;-54
2022/02/07 13:18:17;;;;;;;;;;;6.10;99.90;;;;;;5130146;28;19935;-53
2022/02/07 13:20:44;;;;;;;;;;;6.20;99.90;;;;;;5124290;28;19924;-53
2022/02/07 13:23:14;;;;;;;;;;;6.10;99.90;;;;;;5111529;28;20007;-53
2022/02/07 13:25:42;;;;;;;;;;;6.30;99.90;;;;;;5126341;28;19953;-53
2022/02/07 13:28:12;;;;;;;;;;;6.50;99.90;;;;;;5124669;28;19966;-53
2022/02/07 13:30:40;;;;;;;;;;;6.30;99.90;;;;;;5108189;28;20414;-53
2022/02/07 13:33:06;;;;;;;;;;;6.40;99.90;;;;;;5109918;28;20007;-53
2022/02/07 13:35:36;;;;;;;;;;;6.20;99.90;;;;;;5108404;28;19936;-53
2022/02/07 13:38:05;;;;;;;;;;;6.20;99.90;;;;;;5095120;28;20011;-50
2022/02/07 13:40:38;;;;;;;;;;;6.10;99.90;;;;;;5109040;28;19930;-50
2022/02/07 13:43:05;;;;;;;;;;;5.80;99.90;;;;;;5113468;28;19924;-50
2022/02/07 13:45:32;;;;;;;;;;;5.70;99.90;;;;;;5116249;27;19932;-51
2022/02/07 13:48:00;;;;;;;;;;;5.80;99.90;;;;;;5131474;22;20034;-50
2022/02/07 13:50:28;;;;;;;;;;;5.90;99.90;;;;;;5072813;28;20031;-50
2022/02/07 13:52:56;;;;;;;;;;;6.10;99.90;;;;;;5073040;28;19925;-50
2022/02/07 13:55:24;;;;;;;;;;;6.40;99.90;;;;;;5074011;28;19928;-50
2022/02/07 13:57:56;;;;;;;;;;;6.60;99.90;;;;;;5073770;28;19928;-50
2022/02/07 14:00:24;;;;;;;;;;;6.60;99.90;;;;;;5073423;28;19970;-49
2022/02/07 14:03:03;;;;;;;;;;;6.50;99.90;;;;;;5073805;28;19981;-52
2022/02/07 14:05:35;;;;;;;;;;;6.40;99.90;;;;;;5066420;28;19932;-51
2022/02/07 14:08:02;;;;;;;;;;;6.40;99.90;;;;;;5071955;28;19950;-51
2022/02/07 14:10:34;;;;;;;;;;;6.30;99.90;;;;;;5072466;28;19937;-50
2022/02/07 14:13:02;;;;;;;;;;;6.20;99.90;;;;;;5072303;28;19924;-50
2022/02/07 14:15:29;;;;;;;;;;;6.30;99.90;;;;;;5072622;28;19932;-51
2022/02/07 14:17:56;;;;;;;;;;;6.20;99.90;;;;;;5071099;28;19970;-50
2022/02/07 14:20:30;;;;;;;;;;;6.40;99.90;;;;;;5072519;28;20310;-52
2022/02/07 14:22:56;;;;;;;;;;;6.60;99.90;;;;;;5072642;28;19924;-49
2022/02/07 14:25:27;;;;;;;;;;;6.80;99.90;;;;;;5072213;28;20352;-50
2022/02/07 14:27:54;;;;;;;;;;;7.00;99.90;;;;;;5071762;28;19936;-51
2022/02/07 14:30:24;;;;;;;;;;;6.90;99.90;;;;;;5072415;28;19925;-51
2022/02/07 14:32:51;;;;;;;;;;;7.00;99.90;;;;;;5070005;28;19945;-51
2022/02/07 14:35:18;;;;;;;;;;;7.00;99.90;;;;;;5054530;28;19925;-53
2022/02/07 14:37:44;;;;;;;;;;;7.00;99.90;;;;;;5072711;28;19932;-57
2022/02/07 14:40:11;;;;;;;;;;;7.00;99.90;;;;;;5072415;28;19978;-52
2022/02/07 14:42:38;;;;;;;;;;;7.20;99.90;;;;;;5056882;28;19928;-51
2022/02/07 14:45:13;;;;;;;;;;;7.00;99.90;;;;;;5061638;28;19924;-52
2022/02/07 14:50:24;;;;;;;;;;;6.90;99.90;;;;;;5055705;28;20349;-53
2022/02/07 14:52:51;;;;;;;;;;;6.80;99.90;;;;;;5071974;28;19939;-52
2022/02/07 14:55:18;;;;;;;;;;;6.70;99.90;;;;;;5072000;28;19932;-51
2022/02/07 14:57:44;;;;;;;;;;;6.70;99.90;;;;;;5070795;28;20378;-53
2022/02/07 15:00:15;;;;;;;;;;;6.60;99.90;;;;;;5071694;28;19925;-51
2022/02/07 15:02:43;;;;;;;;;;;6.40;99.90;;;;;;5071449;28;19954;-51
2022/02/07 15:05:10;;;;;;;;;;;6.50;99.90;;;;;;5071429;28;20070;-51
2022/02/07 15:07:37;;;;;;;;;;;6.50;99.90;;;;;;5071509;28;19932;-51
2022/02/07 15:10:04;;;;;;;;;;;6.50;99.90;;;;;;5067627;28;19925;-51
2022/02/07 15:12:31;;;;;;;;;;;6.50;99.90;;;;;;5072340;28;19924;-50
2022/02/07 15:14:58;;;;;;;;;;;6.40;99.90;;;;;;5072155;28;19932;-50
2022/02/07 15:17:28;;;;;;;;;;;6.40;99.90;;;;;;5072640;28;19924;-50
2022/02/07 15:19:56;;;;;;;;;;;6.30;99.90;;;;;;5072430;28;20343;-49
2022/02/07 15:22:23;;;;;;;;;;;6.40;99.90;;;;;;5072484;28;20406;-50
2022/02/07 15:24:49;;;;;;;;;;;6.40;99.90;;;;;;5072069;28;19989;-50
2022/02/07 15:27:17;;;;;;;;;;;6.40;99.90;;;;;;5071144;28;19924;-50
2022/02/07 15:29:44;;;;;;;;;;;6.40;99.90;;;;;;5072068;28;19925;-50
2022/02/07 15:32:23;;;;;;;;;;;6.40;99.90;;;;;;5071978;28;19928;-50
2022/02/07 15:34:50;;;;;;;;;;;6.40;99.90;;;;;;5072049;28;19925;-50
2022/02/07 15:37:18;;;;;;;;;;;6.20;99.90;;;;;;5071737;28;19928;-50
2022/02/07 15:39:45;;;;;;;;;;;6.20;99.90;;;;;;5071722;28;20614;-51
2022/02/07 15:42:12;;;;;;;;;;;6.10;99.90;;;;;;5071816;28;19977;-49
2022/02/07 15:44:39;;;;;;;;;;;6.00;99.90;;;;;;5061800;28;19982;-50
2022/02/07 15:47:05;;;;;;;;;;;5.90;99.90;;;;;;5051494;28;19975;-49
2022/02/07 15:49:33;;;;;;;;;;;5.90;99.90;;;;;;5053348;28;19979;-49
2022/02/07 15:52:00;;;;;;;;;;;5.90;99.90;;;;;;5071641;28;20416;-50
2022/02/07 15:54:31;;;;;;;;;;;5.90;99.90;;;;;;5071947;28;20027;-51
2022/02/07 15:56:57;;;;;;;;;;;5.80;99.90;;;;;;5071556;28;19929;-49
2022/02/07 15:59:24;;;;;;;;;;;5.70;99.90;;;;;;5071666;28;19985;-50
2022/02/07 16:01:51;;;;;;;;;;;5.80;99.90;;;;;;5071861;28;19974;-50
2022/02/07 16:04:18;;;;;;;;;;;5.80;99.90;;;;;;5070658;28;20455;-49
2022/02/07 16:06:44;;;;;;;;;;;5.80;99.90;;;;;;5071579;28;19974;-49
2022/02/07 16:09:11;;;;;;;;;;;5.70;99.90;;;;;;5070848;28;19932;-50
2022/02/07 16:11:39;;;;;;;;;;;5.70;99.90;;;;;;5071443;28;19924;-50
2022/02/07 16:14:09;;;;;;;;;;;5.70;99.90;;;;;;5071207;28;19928;-50
2022/02/07 16:16:36;;;;;;;;;;;5.50;99.90;;;;;;5069627;28;19929;-50